Time;durP1;ratioP1;P1;durP2;ratioP2;P2;SDS_P1;SDS_P2;PMS_P1;PMS_P2;Temp;Humidity;BMP_temperature;BMP_pressure;BME280_temperature;BME280_humidity;BME280_pressure;Samples;Min_cycle;Max_cycle;Signal;HPM_P1;HPM_P2
2022/11/23 00:02:20;;;;;;;8.40;4.63;;;8.40;80.20;;;10.88;59.56;99722.25;5075826;28;20267;-58
2022/11/23 00:04:49;;;;;;;7.47;4.57;;;8.40;80.30;;;10.97;59.50;99729.94;5075972;28;20492;-58
2022/11/23 00:07:16;;;;;;;9.17;4.80;;;8.40;80.60;;;10.98;59.10;99721.84;5075789;28;20243;-58
2022/11/23 00:09:43;;;;;;;6.53;4.47;;;8.40;80.80;;;10.94;59.15;99719.78;5072838;28;20186;-56
2022/11/23 00:12:10;;;;;;;9.00;5.13;;;8.40;80.90;;;10.92;60.00;99727.91;5055061;28;20694;-57
2022/11/23 00:14:37;;;;;;;7.10;4.80;;;8.40;81.10;;;10.94;59.91;99717.97;5068279;28;20264;-59
2022/11/23 00:17:04;;;;;;;6.63;4.53;;;8.40;81.10;;;10.97;59.92;99722.84;5078061;28;20236;-59
2022/11/23 00:19:31;;;;;;;8.43;4.93;;;8.40;82.10;;;10.94;59.73;99725.88;5063237;28;20205;-59
2022/11/23 00:22:01;;;;;;;6.93;4.93;;;8.40;81.50;;;10.89;60.27;99713.31;5077139;28;20209;-59
2022/11/23 00:24:55;;;;;;;10.80;4.90;;;8.40;81.60;;;10.83;60.59;99719.41;5073403;28;20185;-58
2022/11/23 00:27:58;;;;;;;7.20;4.70;;;8.40;81.70;;;10.71;60.85;99720.19;5027280;28;20233;-60
2022/11/23 00:30:28;;;;;;;5.80;4.30;;;8.40;82.70;;;10.74;60.93;99710.06;5059669;28;20301;-57
2022/11/23 00:32:56;;;;;;;8.57;4.90;;;8.30;82.00;;;10.78;61.16;99718.38;5077520;28;20232;-58
2022/11/23 00:35:26;;;;;;;7.13;4.50;;;8.40;82.30;;;10.84;61.04;99715.75;5057142;28;20195;-58
2022/11/23 00:38:06;;;;;;;7.50;3.97;;;8.40;82.50;;;10.80;60.87;99709.28;5069546;28;20201;-59
2022/11/23 00:40:33;;;;;;;11.27;4.67;;;8.40;82.80;;;10.84;61.35;99713.13;5070665;28;20658;-57
2022/11/23 00:43:00;;;;;;;6.80;4.37;;;8.40;83.10;;;10.85;61.50;99716.56;5054968;28;20607;-57
2022/11/23 00:45:27;;;;;;;8.33;4.27;;;8.40;83.40;;;10.84;61.91;99717.56;5055118;28;20210;-60
2022/11/23 00:47:55;;;;;;;5.33;4.53;;;8.40;83.60;;;10.91;61.39;99717.59;5066070;28;20330;-58
2022/11/23 00:50:22;;;;;;;5.80;3.93;;;8.40;83.70;;;10.92;61.95;99713.94;5074310;28;20197;-58
2022/11/23 00:52:49;;;;;;;9.47;4.27;;;8.40;84.00;;;10.99;61.35;99712.94;5071368;28;20634;-58
2022/11/23 00:55:18;;;;;;;5.73;4.07;;;8.40;83.90;;;11.02;61.42;99712.53;5054787;28;20190;-58
2022/11/23 00:57:44;;;;;;;6.50;4.43;;;8.40;84.20;;;10.94;61.72;99712.72;5055153;28;20596;-57
2022/11/23 01:00:12;;;;;;;4.70;3.63;;;8.40;84.40;;;10.94;62.32;99717.97;5055018;28;20642;-60
2022/11/23 01:02:39;;;;;;;6.53;4.20;;;8.40;84.40;;;10.98;62.45;99721.03;5054752;28;20214;-60
2022/11/23 01:05:07;;;;;;;7.57;4.23;;;8.40;84.40;;;10.96;62.02;99715.94;5070121;28;20217;-56
2022/11/23 01:07:34;;;;;;;6.50;4.00;;;8.40;84.50;;;11.02;62.38;99719.63;5067508;28;20258;-56
2022/11/23 01:10:01;;;;;;;6.63;4.27;;;8.50;84.80;;;11.06;62.42;99718.19;5065739;28;20188;-57
2022/11/23 01:12:29;;;;;;;6.57;4.23;;;8.50;84.80;;;11.11;62.08;99723.66;5053891;28;20209;-58
2022/11/23 01:14:56;;;;;;;7.50;4.33;;;8.50;84.60;;;11.17;61.80;99720.22;5072395;28;20196;-57
2022/11/23 01:17:23;;;;;;;6.87;4.40;;;8.50;84.60;;;11.17;61.94;99730.75;5095147;28;20258;-56
2022/11/23 01:19:50;;;;;;;5.40;4.00;;;8.50;84.60;;;11.12;62.26;99723.47;5083285;28;20270;-57
2022/11/23 01:22:19;;;;;;;6.10;3.80;;;8.60;84.70;;;11.06;62.24;99724.25;5074270;28;20618;-55
2022/11/23 01:24:46;;;;;;;5.23;3.90;;;8.50;84.60;;;10.97;62.04;99716.78;5074055;28;20197;-57
2022/11/23 01:27:13;;;;;;;5.40;3.33;;;8.50;84.70;;;11.00;62.28;99719.00;5077285;28;20225;-58
2022/11/23 01:29:41;;;;;;;6.27;3.50;;;8.60;84.70;;;11.06;62.50;99721.63;5074580;28;20193;-57
2022/11/23 01:32:08;;;;;;;5.87;3.90;;;8.50;84.60;;;11.15;62.27;99717.78;5074050;28;20224;-58
2022/11/23 01:34:35;;;;;;;5.43;3.50;;;8.60;84.70;;;11.22;61.59;99712.53;5074253;28;20243;-58
2022/11/23 01:37:02;;;;;;;6.43;3.50;;;8.60;84.60;;;11.21;61.55;99710.91;5074325;28;20189;-60
2022/11/23 01:39:29;;;;;;;5.90;3.73;;;8.60;84.60;;;11.25;62.03;99707.66;5074091;28;20193;-60
2022/11/23 01:41:56;;;;;;;8.97;4.27;;;8.70;84.60;;;11.23;61.80;99720.22;5067593;28;20308;-58
2022/11/23 01:44:27;;;;;;;7.53;3.70;;;8.70;84.60;;;11.23;61.41;99714.94;5053962;28;20314;-59
2022/11/23 01:46:58;;;;;;;4.87;3.50;;;8.70;84.60;;;11.26;61.51;99719.81;5055527;28;20683;-60
2022/11/23 01:49:32;;;;;;;5.30;3.73;;;8.70;84.50;;;11.29;61.89;99729.13;5073939;28;20244;-60
2022/11/23 01:52:07;;;;;;;4.97;3.40;;;8.70;84.50;;;11.30;61.38;99720.22;5073880;28;20208;-59
2022/11/23 01:54:43;;;;;;;5.00;2.70;;;8.70;84.40;;;11.32;61.64;99729.53;5074000;28;20201;-58
2022/11/23 01:57:17;;;;;;;6.60;3.50;;;8.70;84.40;;;11.26;61.89;99724.28;5074025;28;20266;-60
2022/11/23 01:59:46;;;;;;;3.53;3.03;;;8.70;84.40;;;11.27;61.79;99728.50;5072865;28;20588;-58
2022/11/23 02:02:16;;;;;;;6.00;3.47;;;8.70;84.50;;;11.18;61.96;99722.66;5073585;28;20213;-58
2022/11/23 02:04:48;;;;;;;4.33;3.00;;;8.70;84.50;;;11.19;62.02;99724.28;5071193;28;20216;-56
2022/11/23 02:07:18;;;;;;;7.67;3.07;;;8.70;84.50;;;11.16;62.24;99724.69;5072044;28;20216;-58
2022/11/23 02:09:54;;;;;;;3.97;3.07;;;8.70;84.70;;;11.19;61.83;99715.56;5054226;28;20201;-61
2022/11/23 02:12:22;;;;;;;4.37;3.20;;;8.70;84.70;;;11.18;62.58;99716.56;5051244;28;20218;-58
2022/11/23 02:14:50;;;;;;;5.93;3.13;;;8.70;84.70;;;11.21;62.33;99716.16;5059544;28;20646;-58
2022/11/23 02:17:20;;;;;;;5.37;3.23;;;8.70;84.70;;;11.26;61.75;99713.72;5053944;28;20236;-59
2022/11/23 02:20:03;;;;;;;4.63;3.07;;;8.70;84.70;;;11.26;61.90;99709.28;5054084;28;20206;-59
2022/11/23 02:22:46;;;;;;;7.27;2.87;;;8.70;84.60;;;11.30;62.03;99712.31;5067192;28;20227;-56
2022/11/23 02:25:26;;;;;;;4.00;2.63;;;8.70;84.70;;;11.24;61.61;99711.31;5054110;28;20248;-58
2022/11/23 02:27:56;;;;;;;3.27;2.97;;;8.70;84.60;;;11.31;61.55;99716.56;5053923;28;20507;-56
2022/11/23 02:30:23;;;;;;;5.07;3.10;;;8.80;84.60;;;11.34;62.15;99713.50;5054131;28;20253;-57
2022/11/23 02:32:50;;;;;;;3.97;2.90;;;8.70;84.50;;;11.37;61.84;99702.56;5058272;28;20226;-56
2022/11/23 02:35:17;;;;;;;4.17;2.60;;;8.80;84.60;;;11.38;61.48;99701.56;5069621;28;20234;-58
2022/11/23 02:37:44;;;;;;;4.00;2.73;;;8.80;84.60;;;11.41;61.67;99706.44;5084229;28;20184;-59
2022/11/23 02:40:24;;;;;;;2.90;2.70;;;8.80;84.60;;;11.44;61.53;99711.25;5083013;28;20254;-59
2022/11/23 02:42:51;;;;;;;3.63;2.77;;;8.90;84.80;;;11.45;61.69;99712.91;5086064;28;20214;-57
2022/11/23 02:45:30;;;;;;;3.47;2.90;;;8.90;85.60;;;11.47;61.66;99721.41;5086121;28;20191;-59
2022/11/23 02:47:57;;;;;;;4.77;2.40;;;8.90;84.90;;;11.52;61.97;99711.88;5077703;28;20223;-61
2022/11/23 02:50:24;;;;;;;3.90;2.43;;;8.90;85.00;;;11.52;61.83;99718.97;5080629;28;20279;-59
2022/11/23 02:52:51;;;;;;;4.10;2.97;;;8.90;85.10;;;11.49;62.04;99711.47;5065190;28;20631;-59
2022/11/23 02:55:18;;;;;;;5.90;3.00;;;8.90;85.30;;;11.49;62.17;99714.09;5064524;28;20220;-59
2022/11/23 02:57:45;;;;;;;4.57;2.70;;;8.90;85.20;;;11.50;61.99;99705.97;5065918;28;20655;-58
2022/11/23 03:00:13;;;;;;;3.93;2.47;;;8.90;85.40;;;11.50;62.08;99713.09;5065468;28;20240;-59
2022/11/23 03:02:42;;;;;;;3.23;2.37;;;8.90;85.60;;;11.42;62.95;99708.03;5069829;28;20220;-59
2022/11/23 03:05:09;;;;;;;3.40;2.50;;;8.90;85.80;;;11.32;63.08;99713.72;5080744;28;20672;-54
2022/11/23 03:07:36;;;;;;;5.27;2.73;;;8.80;86.00;;;11.34;63.37;99716.13;5084576;28;20205;-60
2022/11/23 03:10:09;;;;;;;4.50;3.27;;;8.90;86.10;;;11.37;63.32;99718.38;5087551;28;20241;-59
2022/11/23 03:12:36;;;;;;;4.13;2.73;;;8.90;86.20;;;11.41;63.35;99712.47;5087199;28;20217;-59
2022/11/23 03:15:05;;;;;;;4.30;2.90;;;8.90;86.20;;;11.36;63.34;99711.50;5086790;28;20197;-59
2022/11/23 03:17:32;;;;;;;3.00;2.70;;;8.90;86.40;;;11.39;63.06;99718.97;5091179;28;20195;-59
2022/11/23 03:20:00;;;;;;;5.73;3.03;;;8.90;86.30;;;11.46;63.15;99720.59;5078577;28;20200;-59
2022/11/23 03:22:27;;;;;;;3.93;2.90;;;8.90;86.70;;;11.47;63.18;99726.69;5088112;28;20221;-57
2022/11/23 03:24:56;;;;;;;3.80;2.30;;;8.90;86.50;;;11.49;62.94;99720.19;5091969;28;20207;-59
2022/11/23 03:27:23;;;;;;;4.27;2.93;;;8.90;86.50;;;11.51;62.94;99722.59;5086468;28;20216;-59
2022/11/23 03:29:50;;;;;;;5.10;2.47;;;8.90;86.50;;;11.54;63.08;99728.28;5085523;28;20193;-60
2022/11/23 03:32:17;;;;;;;4.50;2.70;;;8.90;86.60;;;11.54;63.03;99716.94;5086595;28;20274;-58
2022/11/23 03:34:44;;;;;;;3.93;3.03;;;9.00;86.80;;;11.55;62.95;99723.84;5087021;28;20194;-61
2022/11/23 03:37:12;;;;;;;3.43;2.53;;;9.00;86.70;;;11.54;63.27;99724.84;5081077;28;20193;-59
2022/11/23 03:39:39;;;;;;;4.37;2.53;;;9.00;86.80;;;11.54;63.62;99728.28;5083571;28;20200;-58
2022/11/23 03:42:13;;;;;;;3.57;2.53;;;9.00;86.90;;;11.54;63.34;99730.94;5081476;28;20296;-61
2022/11/23 03:44:40;;;;;;;4.63;2.40;;;9.00;86.80;;;11.58;63.06;99729.50;5085812;28;20201;-57
2022/11/23 03:47:07;;;;;;;3.37;2.80;;;9.00;86.80;;;11.60;63.41;99721.38;5084178;28;20278;-59
2022/11/23 03:49:34;;;;;;;2.73;2.03;;;9.00;87.10;;;11.62;63.42;99719.34;5088006;28;20196;-59
2022/11/23 03:52:01;;;;;;;5.17;2.63;;;9.00;87.00;;;11.66;63.70;99732.91;5082701;28;20298;-58
2022/11/23 03:54:29;;;;;;;3.80;2.63;;;9.00;87.30;;;11.65;63.52;99734.75;5082047;28;20251;-57
2022/11/23 03:56:56;;;;;;;4.00;2.43;;;9.00;87.30;;;11.66;63.57;99733.72;5076952;28;20250;-59
2022/11/23 03:59:23;;;;;;;2.37;2.00;;;9.00;87.50;;;11.66;63.97;99736.38;5074809;28;20191;-59
2022/11/23 04:01:50;;;;;;;5.63;2.73;;;9.00;87.70;;;11.68;63.50;99728.28;5075341;28;20605;-59
2022/11/23 04:04:17;;;;;;;2.70;2.30;;;9.10;87.70;;;11.69;64.09;99736.00;5075945;28;20278;-55
2022/11/23 04:06:46;;;;;;;3.00;2.47;;;9.10;87.90;;;11.70;64.08;99734.97;5070192;28;20699;-59
2022/11/23 04:09:14;;;;;;;2.27;2.07;;;9.10;87.90;;;11.71;64.18;99733.97;5076795;28;20193;-59
2022/11/23 04:11:42;;;;;;;3.00;2.70;;;9.10;88.00;;;11.71;64.21;99733.97;5075635;28;20267;-58
2022/11/23 04:14:09;;;;;;;4.07;2.30;;;9.10;88.20;;;11.75;64.25;99719.34;5078765;28;20499;-56
2022/11/23 04:16:36;;;;;;;3.67;2.57;;;9.10;88.20;;;11.79;63.83;99725.81;5083731;28;20606;-58
2022/11/23 04:19:03;;;;;;;5.00;2.00;;;9.10;88.30;;;11.79;64.55;99730.28;5073482;28;20190;-60
2022/11/23 04:21:30;;;;;;;5.47;2.43;;;9.20;88.40;;;11.79;64.21;99723.16;5074890;28;20272;-58
2022/11/23 04:23:57;;;;;;;3.67;2.20;;;9.20;88.50;;;11.79;64.05;99731.09;5076296;28;20185;-55
2022/11/23 04:26:24;;;;;;;5.20;2.03;;;9.20;88.50;;;11.78;64.09;99729.47;5057574;28;20589;-57
2022/11/23 04:28:53;;;;;;;5.47;2.20;;;9.20;88.50;;;11.79;64.23;99725.03;5055103;28;20336;-57
2022/11/23 04:31:20;;;;;;;2.83;2.20;;;9.20;88.40;;;11.86;64.26;99721.31;5055470;28;20558;-56
2022/11/23 04:33:47;;;;;;;3.30;2.17;;;9.30;88.30;;;11.93;63.81;99722.13;5062127;28;20189;-57
2022/11/23 04:36:14;;;;;;;1.87;1.77;;;9.20;88.30;;;11.93;64.08;99722.13;5075275;28;20714;-57
2022/11/23 04:38:41;;;;;;;3.90;2.10;;;9.30;88.40;;;11.94;64.24;99717.66;5075357;28;20247;-59
2022/11/23 04:41:09;;;;;;;3.37;2.03;;;9.30;88.30;;;11.98;63.67;99719.66;5075043;28;20262;-57
2022/11/23 04:43:36;;;;;;;3.97;2.67;;;9.30;88.20;;;12.00;63.82;99722.94;5074571;28;20250;-57
2022/11/23 04:46:04;;;;;;;3.00;2.70;;;9.30;88.00;;;12.00;63.72;99728.19;5058339;28;20539;-56
2022/11/23 04:48:31;;;;;;;4.13;2.40;;;9.30;88.10;;;11.99;63.83;99731.84;5078021;28;20204;-58
2022/11/23 04:50:58;;;;;;;4.30;2.33;;;9.30;88.00;;;12.02;63.64;99730.63;5095724;28;20596;-57
2022/11/23 04:53:25;;;;;;;4.67;2.30;;;9.30;87.90;;;11.96;63.83;99726.97;5095149;28;20235;-56
2022/11/23 04:55:52;;;;;;;2.77;1.57;;;9.40;88.00;;;11.95;64.21;99730.66;5095340;28;20649;-58
2022/11/23 04:58:19;;;;;;;4.07;2.17;;;9.40;88.10;;;11.98;64.00;99724.94;5068562;28;20666;-56
2022/11/23 05:00:49;;;;;;;3.70;2.00;;;9.40;88.00;;;12.01;63.92;99729.00;5072148;28;20213;-58
2022/11/23 05:03:18;;;;;;;4.67;2.10;;;9.40;88.00;;;12.04;64.01;99729.41;5072837;28;20246;-59
2022/11/23 05:05:45;;;;;;;2.87;2.10;;;9.40;88.00;;;12.05;63.60;99731.00;5073111;28;20194;-59
2022/11/23 05:08:12;;;;;;;3.87;1.87;;;9.40;88.10;;;12.05;63.79;99733.63;5066798;28;20204;-60
2022/11/23 05:10:39;;;;;;;7.03;2.07;;;9.50;88.20;;;12.08;63.79;99733.22;5058191;28;20198;-58
2022/11/23 05:13:06;;;;;;;4.37;1.90;;;9.50;88.20;;;12.12;63.98;99731.00;5059038;28;20296;-56
2022/11/23 05:15:33;;;;;;;4.30;2.07;;;9.50;88.20;;;12.08;63.88;99735.88;5088585;28;20196;-58
2022/11/23 05:18:01;;;;;;;2.87;1.93;;;9.40;88.20;;;12.08;63.87;99735.03;5094953;28;20214;-58
2022/11/23 05:20:29;;;;;;;6.57;2.23;;;9.50;88.30;;;12.04;63.96;99728.56;5076847;28;20193;-59
2022/11/23 05:22:56;;;;;;;5.57;2.57;;;9.50;88.20;;;12.05;63.96;99732.84;5074741;28;20229;-57
2022/11/23 05:25:24;;;;;;;4.13;1.90;;;9.50;88.30;;;12.11;64.11;99738.09;5073925;28;20201;-58
2022/11/23 05:27:51;;;;;;;3.93;2.03;;;9.50;88.10;;;12.15;63.64;99741.09;5066224;28;20210;-57
2022/11/23 05:30:22;;;;;;;3.80;2.20;;;9.50;88.10;;;12.19;63.97;99737.84;5054626;28;20194;-62
2022/11/23 05:32:49;;;;;;;4.77;1.93;;;9.60;88.10;;;12.15;63.83;99739.28;5086856;28;20229;-58
2022/11/23 05:35:17;;;;;;;6.40;2.40;;;9.60;88.20;;;12.14;64.15;99745.59;5074695;28;20199;-58
2022/11/23 05:37:45;;;;;;;3.80;2.17;;;9.60;88.10;;;12.16;63.89;99740.09;5074773;28;20201;-57
2022/11/23 05:40:12;;;;;;;2.10;1.90;;;9.60;88.10;;;12.20;63.84;99742.09;5073509;28;20197;-61
2022/11/23 05:42:39;;;;;;;2.00;1.83;;;9.60;88.10;;;12.19;63.88;99748.38;5067917;28;20286;-58
2022/11/23 05:45:08;;;;;;;4.20;2.40;;;9.60;88.00;;;12.20;63.67;99751.84;5073731;28;20235;-58
2022/11/23 05:47:37;;;;;;;5.27;2.03;;;9.60;87.90;;;12.22;63.60;99753.25;5083993;28;20213;-59
2022/11/23 05:50:06;;;;;;;3.33;2.07;;;9.60;87.80;;;12.26;63.66;99752.84;5073865;28;20688;-58
2022/11/23 05:52:33;;;;;;;3.77;2.10;;;9.60;87.70;;;12.28;63.25;99761.34;5072758;28;20209;-58
2022/11/23 05:55:02;;;;;;;4.87;2.07;;;9.60;87.80;;;12.29;63.66;99757.72;5074354;28;20287;-58
2022/11/23 05:57:29;;;;;;;2.80;1.83;;;9.60;87.80;;;12.30;63.41;99751.41;5055936;28;20193;-61
2022/11/23 05:59:56;;;;;;;5.73;2.10;;;9.70;87.80;;;12.31;63.18;99753.03;5053766;28;20196;-62
2022/11/23 06:02:23;;;;;;;7.13;2.80;;;9.70;87.70;;;12.30;63.40;99759.31;5053575;28;20279;-59
2022/11/23 06:04:50;;;;;;;2.93;2.00;;;9.70;87.70;;;12.26;63.69;99755.47;5053612;28;20198;-59
2022/11/23 06:07:17;;;;;;;2.90;2.27;;;9.70;87.70;;;12.23;63.53;99765.44;5071438;28;20612;-58
2022/11/23 06:09:44;;;;;;;2.53;1.90;;;9.60;87.70;;;12.15;63.91;99768.31;5073480;28;20221;-58
2022/11/23 06:12:12;;;;;;;2.83;1.90;;;9.60;87.80;;;12.19;63.96;99771.34;5066514;28;20225;-60
2022/11/23 06:14:39;;;;;;;5.23;2.37;;;9.70;87.80;;;12.21;64.09;99771.94;5081948;28;20555;-58
2022/11/23 06:17:06;;;;;;;2.80;2.00;;;9.70;87.90;;;12.24;63.61;99767.03;5096828;28;20189;-59
2022/11/23 06:19:33;;;;;;;3.23;2.60;;;9.70;87.80;;;12.30;63.93;99777.78;5082691;28;20198;-60
2022/11/23 06:22:01;;;;;;;5.37;2.23;;;9.70;87.80;;;12.34;63.48;99771.09;5057037;28;20649;-61
2022/11/23 06:24:29;;;;;;;3.20;2.20;;;9.80;87.80;;;12.42;63.30;99774.28;5057289;28;20192;-60
2022/11/23 06:26:56;;;;;;;3.53;2.17;;;9.80;87.80;;;12.50;63.20;99775.88;5057373;28;20260;-60
2022/11/23 06:29:25;;;;;;;4.40;2.20;;;9.80;87.70;;;12.58;63.16;99784.34;5058072;28;20197;-60
2022/11/23 06:31:53;;;;;;;3.07;2.20;;;9.80;87.60;;;12.64;62.83;99778.25;5054024;28;20221;-60
2022/11/23 06:34:20;;;;;;;5.47;2.10;;;9.90;87.60;;;12.70;62.61;99789.78;5053903;28;20202;-59
2022/11/23 06:36:47;;;;;;;5.37;2.23;;;9.90;88.30;;;12.73;62.42;99787.53;5053666;28;20243;-59
2022/11/23 06:39:16;;;;;;;5.10;2.17;;;9.90;87.40;;;12.77;62.46;99780.78;5061733;28;20491;-57
2022/11/23 06:41:43;;;;;;;5.37;2.30;;;9.90;87.40;;;12.78;62.29;99784.25;5072494;28;20669;-59
2022/11/23 06:44:10;;;;;;;4.80;2.50;;;9.90;87.10;;;12.79;62.22;99786.66;5073574;28;20243;-60
2022/11/23 06:46:38;;;;;;;4.50;2.13;;;10.00;86.00;;;12.82;62.23;99785.44;5072360;28;20193;-58
2022/11/23 06:49:05;;;;;;;3.47;2.13;;;10.00;85.90;;;12.84;62.07;99778.94;5071424;28;20219;-57
2022/11/23 06:51:32;;;;;;;6.87;2.37;;;10.00;85.90;;;12.86;61.77;99781.34;5072445;28;20212;-63
2022/11/23 06:53:59;;;;;;;4.23;2.23;;;10.00;85.80;;;12.84;61.98;99793.94;5072206;28;20650;-60
2022/11/23 06:56:26;;;;;;;3.93;2.23;;;10.00;85.60;;;12.84;61.78;99791.31;5073513;28;20272;-60
2022/11/23 06:58:53;;;;;;;4.53;2.73;;;10.00;85.60;;;12.84;61.67;99789.50;5073372;28;20683;-56
2022/11/23 07:01:20;;;;;;;3.70;2.37;;;10.00;85.50;;;12.83;61.73;99785.25;5071924;28;20703;-56
2022/11/23 07:03:49;;;;;;;3.10;2.23;;;10.00;85.60;;;12.82;61.65;99791.53;5073692;28;20186;-58
2022/11/23 07:06:16;;;;;;;7.40;2.60;;;10.00;85.30;;;12.80;61.69;99798.03;5073618;28;20216;-59
2022/11/23 07:08:44;;;;;;;4.40;2.93;;;10.00;85.30;;;12.79;61.86;99801.69;5072883;28;20220;-58
2022/11/23 07:11:11;;;;;;;4.73;2.70;;;10.00;85.30;;;12.77;61.92;99798.47;5070175;28;20212;-58
2022/11/23 07:13:39;;;;;;;5.13;2.70;;;10.00;85.30;;;12.76;61.92;99802.97;5064814;28;20218;-60
2022/11/23 07:16:06;;;;;;;6.40;2.73;;;10.00;85.30;;;12.75;61.79;99811.06;5072789;28;20194;-56
2022/11/23 07:18:33;;;;;;;7.60;3.00;;;10.00;85.30;;;12.70;61.93;99808.25;5072417;28;20239;-59
2022/11/23 07:21:02;;;;;;;7.50;2.83;;;10.00;85.10;;;12.69;62.07;99807.44;5052952;28;20186;-59
2022/11/23 07:23:29;;;;;;;2.83;2.43;;;10.00;85.10;;;12.65;61.81;99805.44;5052936;28;20213;-58
2022/11/23 07:25:56;;;;;;;7.47;2.37;;;10.00;85.00;;;12.60;61.97;99807.91;5052848;28;20197;-60
2022/11/23 07:28:23;;;;;;;4.93;2.80;;;9.90;86.00;;;12.55;61.85;99805.09;5053051;28;20304;-59
2022/11/23 07:30:53;;;;;;;5.80;2.47;;;9.90;85.90;;;12.51;61.94;99809.16;5051944;28;20186;-56
2022/11/23 07:33:20;;;;;;;5.20;2.80;;;9.90;85.90;;;12.46;62.20;99820.34;5055023;28;20263;-60
2022/11/23 07:35:47;;;;;;;3.73;2.27;;;9.90;85.90;;;12.45;62.01;99818.75;5059352;28;20194;-60
2022/11/23 07:38:15;;;;;;;6.47;2.10;;;9.80;85.90;;;12.43;61.94;99822.59;5053734;28;20224;-55
2022/11/23 07:40:43;;;;;;;5.93;2.37;;;9.80;85.90;;;12.42;62.03;99827.06;5052864;28;20259;-58
2022/11/23 07:43:10;;;;;;;5.50;2.63;;;9.80;86.00;;;12.41;62.04;99829.94;5052955;28;20234;-58
2022/11/23 07:45:38;;;;;;;4.03;2.50;;;9.70;86.70;;;12.42;61.93;99839.44;5052606;28;20190;-59
2022/11/23 07:48:07;;;;;;;3.37;2.47;;;9.80;86.20;;;12.44;62.14;99840.03;5065128;28;20213;-59
2022/11/23 07:50:41;;;;;;;4.23;2.40;;;9.70;86.20;;;12.45;62.27;99841.69;5071657;28;20189;-58
2022/11/23 07:53:09;;;;;;;5.40;2.60;;;9.70;86.30;;;12.45;61.91;99844.31;5074077;28;20213;-57
2022/11/23 07:55:38;;;;;;;5.40;2.50;;;9.70;86.10;;;12.44;61.87;99842.69;5060501;28;20320;-59
2022/11/23 07:58:05;;;;;;;3.33;1.93;;;9.80;86.10;;;12.47;61.85;99844.91;5052519;28;20243;-57
2022/11/23 08:00:32;;;;;;;5.83;2.43;;;9.80;86.20;;;12.50;61.85;99847.97;5056267;28;20201;-57
2022/11/23 08:02:59;;;;;;;5.00;2.83;;;9.80;86.20;;;12.53;61.78;99847.53;5074849;28;20209;-60
2022/11/23 08:05:47;;;;;;;3.20;2.20;;;9.80;86.10;;;12.59;61.61;99843.25;5075410;28;20197;-58
2022/11/23 08:08:15;;;;;;;5.20;3.03;;;9.80;86.20;;;12.66;61.69;99846.66;5075892;28;20625;-59
2022/11/23 08:10:43;;;;;;;3.40;2.00;;;9.90;86.10;;;12.72;61.70;99845.81;5075046;28;20649;-58
2022/11/23 08:13:19;;;;;;;6.00;2.33;;;9.90;86.20;;;12.76;61.26;99850.50;5080151;28;20270;-60
2022/11/23 08:15:46;;;;;;;6.03;2.50;;;9.90;85.90;;;12.78;61.06;99847.63;5098206;28;20196;-59
2022/11/23 08:18:19;;;;;;;9.70;2.23;;;10.00;84.50;;;12.79;61.01;99851.88;5099035;28;20189;-60
2022/11/23 08:20:47;;;;;;;8.53;2.67;;;10.00;84.40;;;12.79;61.14;99851.88;5064416;28;20232;-59
2022/11/23 08:23:17;;;;;;;4.80;2.47;;;10.00;84.30;;;12.76;61.13;99853.13;5076110;28;20281;-57
2022/11/23 08:25:46;;;;;;;2.93;2.33;;;10.00;84.20;;;12.75;61.32;99863.88;5072562;28;20201;-61
2022/11/23 08:28:14;;;;;;;4.33;2.10;;;10.00;84.10;;;12.73;61.18;99855.38;5068862;28;20210;-61
2022/11/23 08:30:41;;;;;;;5.97;2.40;;;10.00;84.00;;;12.73;61.30;99860.66;5061085;28;20617;-60
2022/11/23 08:33:09;;;;;;;5.40;2.70;;;10.00;83.90;;;12.72;61.25;99859.81;5062179;28;20248;-59
2022/11/23 08:35:38;;;;;;;7.40;2.67;;;10.00;83.90;;;12.73;61.14;99858.00;5074131;28;20661;-57
2022/11/23 08:38:08;;;;;;;6.17;3.97;;;10.00;83.90;;;12.78;60.91;99858.19;5075411;28;20201;-59
2022/11/23 08:40:35;;;;;;;3.83;2.57;;;10.10;84.00;;;12.80;60.98;99867.53;5077356;28;20220;-58
2022/11/23 08:43:05;;;;;;;5.10;2.80;;;10.10;83.80;;;12.85;60.91;99858.97;5092316;28;20229;-57
2022/11/23 08:45:32;;;;;;;4.17;2.20;;;10.10;83.70;;;12.88;60.48;99863.84;5091505;28;20185;-56
2022/11/23 08:48:00;;;;;;;5.60;2.13;;;10.10;83.50;;;12.86;60.81;99861.38;5078614;28;20216;-55
2022/11/23 08:50:28;;;;;;;5.07;2.20;;;10.10;83.30;;;12.86;60.56;99865.84;5088889;28;20190;-55
2022/11/23 08:52:55;;;;;;;4.93;2.53;;;10.10;83.20;;;12.89;60.22;99865.44;5076331;28;20205;-58
2022/11/23 08:55:23;;;;;;;3.53;2.30;;;10.20;83.20;;;12.89;60.26;99868.06;5075806;28;20193;-60
2022/11/23 08:57:53;;;;;;;3.30;2.20;;;10.20;82.90;;;12.93;60.44;99864.00;5067068;28;20193;-58
2022/11/23 09:00:21;;;;;;;4.03;2.70;;;10.20;83.10;;;12.99;60.01;99871.09;5073639;28;20189;-59
2022/11/23 09:02:49;;;;;;;4.40;2.87;;;10.20;83.00;;;12.98;60.15;99864.16;5066893;28;20618;-59
2022/11/23 09:05:16;;;;;;;3.63;2.00;;;10.30;82.90;;;12.97;59.98;99878.41;5074701;28;20579;-58
2022/11/23 09:07:43;;;;;;;6.40;2.87;;;10.20;82.40;;;12.96;60.05;99873.31;5065191;28;20724;-59
2022/11/23 09:10:11;;;;;;;4.50;2.33;;;10.30;82.50;;;12.99;59.85;99873.72;5063474;28;20182;-59
2022/11/23 09:12:45;;;;;;;3.43;2.50;;;10.30;82.50;;;12.95;59.95;99864.59;5069286;28;20224;-60
2022/11/23 09:15:12;;;;;;;6.73;2.50;;;10.30;82.30;;;12.91;59.97;99879.25;5081378;28;20203;-55
2022/11/23 09:17:41;;;;;;;4.50;2.80;;;10.30;82.10;;;12.81;60.35;99879.69;5075982;28;20239;-59
2022/11/23 09:20:10;;;;;;;9.37;2.70;;;10.30;82.20;;;12.86;60.43;99882.50;5062817;28;20670;-59
2022/11/23 09:22:37;;;;;;;6.93;2.67;;;10.30;82.20;;;12.91;60.30;99890.63;5055799;28;20206;-59
2022/11/23 09:25:07;;;;;;;5.10;2.50;;;10.40;82.40;;;12.96;60.14;99892.63;5056694;28;20204;-60
2022/11/23 09:27:35;;;;;;;4.10;2.30;;;10.40;82.30;;;12.96;60.14;99884.69;5056186;28;20194;-59
2022/11/23 09:30:03;;;;;;;5.70;2.53;;;10.40;82.30;;;12.99;60.11;99884.28;5057132;28;20214;-56
2022/11/23 09:32:31;;;;;;;5.57;2.37;;;10.40;82.20;;;13.08;60.19;99879.59;5055897;28;20532;-60
2022/11/23 09:35:00;;;;;;;5.43;2.50;;;10.40;82.20;;;13.10;59.95;99883.63;5056545;28;20210;-59
2022/11/23 09:37:28;;;;;;;5.83;2.80;;;10.50;82.20;;;13.17;59.82;99888.91;5056097;28;20220;-56
2022/11/23 09:39:55;;;;;;;6.43;2.83;;;10.50;82.30;;;13.22;59.67;99895.16;5066164;28;20285;-57
2022/11/23 09:43:06;;;;;;;4.80;2.30;;;10.50;82.20;;;13.14;59.81;99895.44;5075800;28;20299;-57
2022/11/23 09:45:45;;;;;;;3.77;2.50;;;10.50;82.00;;;13.20;59.87;99894.56;5076567;28;20205;-60
2022/11/23 09:48:47;;;;;;;3.97;2.80;;;10.60;82.00;;;13.25;59.66;99896.56;5078355;28;20213;-60
2022/11/23 09:51:19;;;;;;;9.87;3.17;;;10.70;82.10;;;13.30;59.59;99899.38;5077680;28;20248;-59
2022/11/23 09:53:53;;;;;;;5.20;2.83;;;10.70;81.90;;;13.24;59.92;99895.75;5076881;28;20560;-59
2022/11/23 09:56:29;;;;;;;5.33;2.60;;;10.70;81.90;;;13.34;59.76;99890.81;5063089;28;20181;-58
2022/11/23 09:59:00;;;;;;;6.23;2.63;;;10.80;81.90;;;13.40;59.76;99882.06;5060416;28;20689;-59
2022/11/23 10:01:29;;;;;;;5.37;2.53;;;10.80;81.80;;;13.51;59.45;99897.22;5058222;28;20209;-58
2022/11/23 10:03:57;;;;;;;11.70;2.67;;;10.90;81.90;;;13.64;59.43;99895.50;5062563;28;20262;-60
2022/11/23 10:06:30;;;;;;;5.90;3.00;;;10.90;82.00;;;13.78;58.78;99897.00;5071610;28;20261;-59
2022/11/23 10:09:17;;;;;;;7.13;2.80;;;11.00;81.90;;;13.67;58.85;99884.50;5079786;28;20301;-58
2022/11/23 10:12:13;;;;;;;6.27;2.63;;;11.00;81.40;;;13.67;58.95;99892.44;5070423;28;20221;-58
2022/11/23 10:15:00;;;;;;;10.50;3.03;;;11.10;81.20;;;13.63;58.83;99893.88;5070403;28;20372;-59
2022/11/23 10:17:49;;;;;;;10.60;3.30;;;11.10;80.80;;;13.71;58.75;99901.56;5054063;28;20198;-60
2022/11/23 10:20:36;;;;;;;7.23;2.70;;;11.20;80.90;;;13.64;58.88;99898.16;5055873;28;20634;-58
2022/11/23 10:23:16;;;;;;;11.70;3.37;;;11.20;80.70;;;13.75;59.03;99894.78;5070373;28;20297;-57
2022/11/23 10:25:49;;;;;;;4.67;2.53;;;11.20;80.80;;;13.87;57.87;99906.28;5064190;28;20649;-58
2022/11/23 10:28:19;;;;;;;4.53;2.30;;;11.20;80.60;;;14.00;58.33;99898.25;5074602;28;20196;-58
2022/11/23 10:31:00;;;;;;;5.33;2.20;;;11.30;80.70;;;14.02;57.93;99898.84;5075973;28;20597;-58
2022/11/23 10:33:33;;;;;;;6.70;2.80;;;11.40;80.40;;;14.09;58.14;99899.59;5073351;28;20205;-60